Time;durP1;ratioP1;P1;durP2;ratioP2;P2;SDS_P1;SDS_P2;PMS_P1;PMS_P2;Temp;Humidity;BMP_temperature;BMP_pressure;BME280_temperature;BME280_humidity;BME280_pressure;Samples;Min_cycle;Max_cycle;Signal;HPM_P1;HPM_P2
2023/10/06 00:01:33;;;;;;;10.67;2.90;;;14.30;81.30;;;;;;5021833;28;20057;-76
2023/10/06 00:04:06;;;;;;;11.00;3.13;;;14.30;81.20;;;;;;5005091;28;20884;-77
2023/10/06 00:06:37;;;;;;;8.60;2.70;;;14.30;81.10;;;;;;5010032;28;20088;-77
2023/10/06 00:09:07;;;;;;;9.02;3.20;;;14.30;81.10;;;;;;4987688;28;20046;-77
2023/10/06 00:11:34;;;;;;;8.43;3.08;;;14.30;81.20;;;;;;5008197;28;20048;-77
2023/10/06 00:14:07;;;;;;;8.43;2.90;;;14.30;81.20;;;;;;5019134;28;20077;-77
2023/10/06 00:16:39;;;;;;;11.77;2.90;;;14.30;81.20;;;;;;5008154;28;20356;-78
2023/10/06 00:19:26;;;;;;;9.25;2.88;;;14.30;81.30;;;;;;5020531;28;20051;-77
2023/10/06 00:22:05;;;;;;;9.18;3.30;;;14.30;81.30;;;;;;5008406;28;20053;-77
2023/10/06 00:24:32;;;;;;;9.07;3.13;;;14.20;81.40;;;;;;5008879;28;20046;-77
2023/10/06 00:26:59;;;;;;;10.07;3.03;;;14.30;81.40;;;;;;4992594;28;20038;-77
2023/10/06 00:29:29;;;;;;;7.20;2.92;;;14.30;81.40;;;;;;5008601;28;20861;-77
2023/10/06 00:32:11;;;;;;;9.20;3.58;;;14.30;81.50;;;;;;5007616;28;20053;-78
2023/10/06 00:34:40;;;;;;;11.18;3.50;;;14.30;81.40;;;;;;5002565;28;20050;-77
2023/10/06 00:37:11;;;;;;;9.07;3.67;;;14.30;81.50;;;;;;4995622;28;20042;-77
2023/10/06 00:39:56;;;;;;;11.37;3.60;;;14.30;81.40;;;;;;5009583;28;20093;-77
2023/10/06 00:42:23;;;;;;;10.07;3.70;;;14.30;81.40;;;;;;4991120;28;20772;-77
2023/10/06 00:44:51;;;;;;;11.10;3.60;;;14.30;81.50;;;;;;5005122;28;20050;-76
2023/10/06 00:47:21;;;;;;;8.23;3.78;;;14.30;81.50;;;;;;5007710;28;20631;-77
2023/10/06 00:49:48;;;;;;;10.07;3.60;;;14.30;81.50;;;;;;5002698;28;20475;-77
2023/10/06 00:52:15;;;;;;;10.40;3.97;;;14.30;81.50;;;;;;5020134;28;20237;-77
2023/10/06 00:54:44;;;;;;;8.93;3.55;;;14.30;81.60;;;;;;5005425;28;20584;-77
2023/10/06 00:57:15;;;;;;;10.55;3.72;;;14.30;81.50;;;;;;4990900;28;20144;-77
2023/10/06 00:59:43;;;;;;;12.77;4.10;;;14.30;81.60;;;;;;5010406;28;20056;-77
2023/10/06 01:02:11;;;;;;;12.13;4.40;;;14.30;81.50;;;;;;5022849;28;20137;-77
2023/10/06 01:04:45;;;;;;;12.23;4.33;;;14.30;81.60;;;;;;4990296;28;20125;-77
2023/10/06 01:07:13;;;;;;;11.48;4.75;;;14.40;81.60;;;;;;5005640;28;20258;-77
2023/10/06 01:09:55;;;;;;;11.55;4.50;;;14.40;81.40;;;;;;4989731;28;20586;-77
2023/10/06 01:12:23;;;;;;;11.02;4.10;;;14.40;81.40;;;;;;4991329;28;20058;-76
2023/10/06 01:14:51;;;;;;;11.48;4.60;;;14.40;81.40;;;;;;5013271;28;20607;-76
2023/10/06 01:17:18;;;;;;;8.80;3.83;;;14.40;81.30;;;;;;5014595;28;20579;-77
2023/10/06 01:19:53;;;;;;;13.65;4.10;;;14.40;81.30;;;;;;5013051;28;20360;-77
2023/10/06 01:22:27;;;;;;;9.80;4.70;;;14.40;81.20;;;;;;5007112;28;20053;-76
2023/10/06 01:24:55;;;;;;;10.10;4.53;;;14.40;81.40;;;;;;5015928;28;20100;-76
2023/10/06 01:27:26;;;;;;;10.60;4.20;;;14.40;81.30;;;;;;5024067;28;20056;-77
2023/10/06 01:30:17;;;;;;;11.67;4.50;;;14.40;81.30;;;;;;4991793;28;20042;-76
2023/10/06 01:32:43;;;;;;;9.85;4.60;;;14.40;81.40;;;;;;5007770;28;20320;-77
2023/10/06 01:35:12;;;;;;;11.63;4.70;;;14.40;81.30;;;;;;5008562;28;20050;-77
2023/10/06 01:37:42;;;;;;;11.88;5.15;;;14.40;81.20;;;;;;5016191;28;20675;-77
2023/10/06 01:40:18;;;;;;;13.02;5.03;;;14.40;81.30;;;;;;5008243;28;20102;-77
2023/10/06 01:42:48;;;;;;;12.47;5.20;;;14.40;81.30;;;;;;5005154;28;20137;-77
2023/10/06 01:45:21;;;;;;;11.82;5.18;;;14.40;81.20;;;;;;5002302;28;20365;-77
2023/10/06 01:47:54;;;;;;;10.63;5.05;;;14.40;81.20;;;;;;4983596;28;20047;-77
2023/10/06 01:50:26;;;;;;;11.07;4.90;;;14.40;81.20;;;;;;5013807;28;20054;-77
2023/10/06 01:52:55;;;;;;;10.52;5.05;;;14.40;81.20;;;;;;4995560;28;20054;-76
2023/10/06 01:55:24;;;;;;;10.03;4.80;;;14.40;81.20;;;;;;4989683;28;20053;-77
2023/10/06 01:57:51;;;;;;;11.50;4.30;;;14.30;81.20;;;;;;5003155;28;20297;-77
2023/10/06 02:00:26;;;;;;;13.35;5.35;;;14.30;81.30;;;;;;4992500;28;20050;-77
2023/10/06 02:02:53;;;;;;;12.23;5.30;;;14.30;81.30;;;;;;5014562;28;20116;-77
2023/10/06 02:05:20;;;;;;;9.35;4.65;;;14.40;81.30;;;;;;5024858;28;20193;-77
2023/10/06 02:07:48;;;;;;;11.67;4.70;;;14.30;81.30;;;;;;5004274;28;20109;-77
2023/10/06 02:10:18;;;;;;;13.55;4.50;;;14.30;81.50;;;;;;5022005;28;20279;-76
2023/10/06 02:12:46;;;;;;;12.45;4.90;;;14.30;81.50;;;;;;5001105;28;20070;-77
2023/10/06 02:15:13;;;;;;;13.05;5.45;;;14.30;81.50;;;;;;5001290;28;20054;-78
2023/10/06 02:17:41;;;;;;;12.00;5.63;;;14.30;81.60;;;;;;5005464;28;20051;-77
2023/10/06 02:20:13;;;;;;;13.90;4.70;;;14.30;81.70;;;;;;5005718;28;20054;-76
2023/10/06 02:22:40;;;;;;;11.13;4.82;;;14.30;81.80;;;;;;5007442;28;20246;-77
2023/10/06 02:25:13;;;;;;;12.98;4.78;;;14.30;81.80;;;;;;5003094;28;20046;-76
2023/10/06 02:27:47;;;;;;;9.27;4.78;;;14.30;81.90;;;;;;5017720;28;20050;-77
2023/10/06 02:30:18;;;;;;;11.65;5.60;;;14.30;81.90;;;;;;5021320;28;20050;-76
2023/10/06 02:32:46;;;;;;;11.73;5.07;;;14.30;81.90;;;;;;4992835;28;20136;-77
2023/10/06 02:35:13;;;;;;;11.90;5.00;;;14.30;81.80;;;;;;5021882;28;20758;-77
2023/10/06 02:37:40;;;;;;;12.98;5.00;;;14.30;82.00;;;;;;5008277;28;20050;-76
2023/10/06 02:40:12;;;;;;;11.50;4.85;;;14.30;81.90;;;;;;4991903;28;20544;-76
2023/10/06 02:42:45;;;;;;;11.23;4.75;;;14.20;82.00;;;;;;5022599;28;20050;-76
2023/10/06 02:45:20;;;;;;;12.00;5.30;;;14.20;82.00;;;;;;5021035;28;20172;-76
2023/10/06 02:47:47;;;;;;;14.57;5.25;;;14.20;82.10;;;;;;5010641;28;20269;-76
2023/10/06 02:50:20;;;;;;;11.82;5.70;;;14.20;82.20;;;;;;5010546;28;20064;-77
2023/10/06 02:52:53;;;;;;;12.05;5.63;;;14.20;82.30;;;;;;5017329;28;20050;-77
2023/10/06 02:55:22;;;;;;;12.75;5.93;;;14.20;82.30;;;;;;4995302;28;20504;-76
2023/10/06 02:57:51;;;;;;;12.97;5.73;;;14.20;82.40;;;;;;5016273;28;20527;-77
2023/10/06 03:00:28;;;;;;;11.10;4.68;;;14.20;82.50;;;;;;5011405;28;20274;-77
2023/10/06 03:02:58;;;;;;;14.13;5.88;;;14.20;82.40;;;;;;5011898;28;20229;-76
2023/10/06 03:05:32;;;;;;;12.38;6.05;;;14.20;82.60;;;;;;5004841;28;20082;-77
2023/10/06 03:08:01;;;;;;;12.48;5.15;;;14.20;82.60;;;;;;4993493;28;20046;-77
2023/10/06 03:10:35;;;;;;;14.33;5.67;;;14.30;82.50;;;;;;5009816;28;20046;-77
2023/10/06 03:13:08;;;;;;;11.43;5.38;;;14.20;82.60;;;;;;5010752;28;20275;-77
2023/10/06 03:15:45;;;;;;;12.98;5.40;;;14.20;82.70;;;;;;5012154;28;20144;-76
2023/10/06 03:18:13;;;;;;;10.43;5.30;;;14.20;82.70;;;;;;4990583;28;20042;-77
2023/10/06 03:20:47;;;;;;;11.82;5.70;;;14.20;82.80;;;;;;5007088;28;20046;-77
2023/10/06 03:23:24;;;;;;;12.63;5.70;;;14.20;82.90;;;;;;5000668;28;20129;-76
2023/10/06 03:25:54;;;;;;;12.30;5.47;;;14.20;82.90;;;;;;5016535;28;20314;-77
2023/10/06 03:28:24;;;;;;;12.57;5.47;;;14.20;82.90;;;;;;5024682;28;20791;-76
2023/10/06 03:30:55;;;;;;;14.85;5.85;;;14.20;82.80;;;;;;5036198;28;20519;-77
2023/10/06 03:33:23;;;;;;;14.82;5.45;;;14.20;82.70;;;;;;4991241;28;20919;-77
2023/10/06 03:35:50;;;;;;;12.37;5.67;;;14.20;82.80;;;;;;5031638;28;20050;-77
2023/10/06 03:38:34;;;;;;;15.27;5.45;;;14.20;82.80;;;;;;5006071;28;20385;-77
2023/10/06 03:41:13;;;;;;;14.18;6.00;;;14.10;82.80;;;;;;4994851;28;20537;-76
2023/10/06 03:43:47;;;;;;;11.43;5.60;;;14.10;82.80;;;;;;4993021;28;20050;-77
2023/10/06 03:46:18;;;;;;;12.52;5.38;;;14.10;82.80;;;;;;4994043;28;20056;-77
2023/10/06 03:48:48;;;;;;;14.20;5.47;;;14.10;83.00;;;;;;4991726;28;20053;-77
2023/10/06 03:51:17;;;;;;;12.90;5.53;;;14.10;83.00;;;;;;5010816;28;20277;-77
2023/10/06 03:53:47;;;;;;;11.88;5.40;;;14.10;83.00;;;;;;4991522;28;20053;-77
2023/10/06 03:56:16;;;;;;;11.13;4.72;;;14.10;83.00;;;;;;5032713;28;20053;-77
2023/10/06 03:58:44;;;;;;;16.45;5.75;;;14.00;82.90;;;;;;5018658;28;20053;-77
2023/10/06 04:01:19;;;;;;;17.17;5.70;;;14.10;83.00;;;;;;5001083;28;20054;-77
2023/10/06 04:03:48;;;;;;;9.65;4.32;;;14.00;83.00;;;;;;5018485;28;20269;-77
2023/10/06 04:06:15;;;;;;;11.82;5.18;;;14.00;83.00;;;;;;5010594;28;20385;-77
2023/10/06 04:08:45;;;;;;;14.43;5.60;;;14.00;83.00;;;;;;5026370;28;20050;-77
2023/10/06 04:11:14;;;;;;;13.18;5.25;;;14.00;83.20;;;;;;4991207;28;20050;-77
2023/10/06 04:13:41;;;;;;;12.70;5.40;;;14.00;83.20;;;;;;4997517;28;20198;-77
2023/10/06 04:16:08;;;;;;;11.07;4.75;;;14.00;83.20;;;;;;5021855;28;20318;-77
2023/10/06 04:18:35;;;;;;;10.85;5.22;;;14.00;83.20;;;;;;5028061;28;20050;-76
2023/10/06 04:21:04;;;;;;;10.38;4.95;;;14.00;83.20;;;;;;5008788;28;20061;-77
2023/10/06 04:23:31;;;;;;;13.43;4.68;;;14.00;83.20;;;;;;5025516;28;20549;-76
2023/10/06 04:25:58;;;;;;;12.10;5.00;;;14.00;83.10;;;;;;5020269;28;20051;-76
2023/10/06 04:28:27;;;;;;;15.88;4.60;;;13.90;83.20;;;;;;5021888;28;20349;-77
2023/10/06 04:30:57;;;;;;;13.98;4.80;;;14.00;83.10;;;;;;5024187;28;20897;-77
2023/10/06 04:33:25;;;;;;;10.93;5.03;;;13.90;83.20;;;;;;5000233;28;20945;-76
2023/10/06 04:35:55;;;;;;;10.95;4.45;;;13.90;83.10;;;;;;5017660;28;20069;-76
2023/10/06 04:38:25;;;;;;;10.43;4.20;;;13.90;83.00;;;;;;5007696;28;20054;-76
2023/10/06 04:40:52;;;;;;;11.55;4.78;;;13.90;83.00;;;;;;5025819;28;20281;-76
2023/10/06 04:43:20;;;;;;;13.13;4.35;;;13.90;83.10;;;;;;5010489;28;21057;-77
2023/10/06 04:45:48;;;;;;;11.10;4.60;;;13.90;83.20;;;;;;5013658;28;20121;-77
2023/10/06 04:48:15;;;;;;;10.60;4.35;;;13.90;83.20;;;;;;5010821;28;20034;-76
2023/10/06 04:50:43;;;;;;;9.33;3.90;;;13.90;83.10;;;;;;5013255;28;20054;-76
2023/10/06 04:53:11;;;;;;;10.85;4.38;;;13.90;83.20;;;;;;5011885;28;20261;-77
2023/10/06 04:55:39;;;;;;;11.27;4.55;;;13.90;83.30;;;;;;5012675;28;20063;-76
2023/10/06 04:58:08;;;;;;;10.77;4.28;;;13.90;83.30;;;;;;5017458;28;20049;-76
2023/10/06 05:00:36;;;;;;;11.02;4.10;;;13.90;83.30;;;;;;5022418;28;20058;-76
2023/10/06 05:03:06;;;;;;;14.27;4.53;;;13.90;83.30;;;;;;5015155;28;20052;-76
2023/10/06 05:05:37;;;;;;;11.35;3.88;;;13.90;83.30;;;;;;5006673;28;20281;-77
2023/10/06 05:08:05;;;;;;;12.50;4.43;;;13.80;83.40;;;;;;5001931;28;20058;-77
2023/10/06 05:10:32;;;;;;;11.85;4.90;;;13.80;83.50;;;;;;5008551;28;20058;-77
2023/10/06 05:13:02;;;;;;;10.63;4.10;;;13.80;83.50;;;;;;5016303;28;20757;-76
2023/10/06 05:15:30;;;;;;;11.93;4.60;;;13.80;83.50;;;;;;5005798;28;20053;-76
2023/10/06 05:17:58;;;;;;;8.63;4.70;;;13.80;83.40;;;;;;5015003;28;20312;-77
2023/10/06 05:20:29;;;;;;;11.13;4.32;;;13.80;83.70;;;;;;5020998;28;20105;-77
2023/10/06 05:22:58;;;;;;;10.15;4.10;;;13.80;83.70;;;;;;5009509;28;20046;-77
2023/10/06 05:25:26;;;;;;;10.98;4.72;;;13.80;83.70;;;;;;5007707;28;20050;-76
2023/10/06 05:27:53;;;;;;;12.93;4.90;;;13.80;83.70;;;;;;5001329;28;20468;-77
2023/10/06 05:30:22;;;;;;;11.50;4.68;;;13.80;83.70;;;;;;5006706;28;20316;-76
2023/10/06 05:32:49;;;;;;;13.15;4.97;;;13.80;83.90;;;;;;5008808;28;20084;-77
2023/10/06 05:35:16;;;;;;;14.48;5.35;;;13.90;83.90;;;;;;5023212;28;20054;-77
2023/10/06 05:37:44;;;;;;;15.98;5.60;;;13.90;83.80;;;;;;5022752;28;20549;-76
2023/10/06 05:40:20;;;;;;;12.63;4.60;;;13.90;83.80;;;;;;5017481;28;20054;-77
2023/10/06 05:42:49;;;;;;;13.02;4.90;;;13.90;83.90;;;;;;5019180;28;20423;-77
2023/10/06 05:45:18;;;;;;;14.45;5.25;;;13.90;83.90;;;;;;5001750;28;20580;-77
2023/10/06 05:47:47;;;;;;;11.75;4.28;;;13.90;84.00;;;;;;5007466;28;20050;-77
2023/10/06 05:50:26;;;;;;;15.98;5.10;;;13.90;83.90;;;;;;5024144;28;20165;-76
2023/10/06 05:52:57;;;;;;;11.60;4.70;;;13.90;84.10;;;;;;5025023;28;20054;-76
2023/10/06 05:55:29;;;;;;;13.75;5.00;;;13.90;84.00;;;;;;5025865;28;20903;-76
2023/10/06 05:57:56;;;;;;;13.07;5.10;;;13.90;84.10;;;;;;5013211;28;20471;-77
2023/10/06 06:00:27;;;;;;;13.15;5.20;;;13.90;84.20;;;;;;5016259;28;20085;-76
2023/10/06 06:02:58;;;;;;;11.65;5.30;;;13.90;84.10;;;;;;5003673;28;20144;-76
2023/10/06 06:05:25;;;;;;;14.43;5.87;;;13.90;84.10;;;;;;5002741;28;20050;-76
2023/10/06 06:07:52;;;;;;;13.00;4.72;;;13.90;84.20;;;;;;4994433;28;20261;-76
2023/10/06 06:10:21;;;;;;;10.95;5.00;;;14.00;84.00;;;;;;4999123;28;20524;-76
2023/10/06 06:12:48;;;;;;;11.20;5.18;;;14.00;84.00;;;;;;4984078;28;20065;-76
2023/10/06 06:15:16;;;;;;;13.32;4.93;;;14.00;84.00;;;;;;5011762;28;20058;-77
2023/10/06 06:17:44;;;;;;;12.43;5.00;;;14.10;83.90;;;;;;4999022;28;20737;-77
2023/10/06 06:20:22;;;;;;;11.82;5.18;;;14.10;83.80;;;;;;5016990;28;20285;-77
2023/10/06 06:22:55;;;;;;;13.73;5.30;;;14.10;84.00;;;;;;5000679;28;20054;-77
2023/10/06 06:25:23;;;;;;;13.85;5.50;;;14.10;84.00;;;;;;5017085;28;20126;-77
2023/10/06 06:27:50;;;;;;;14.95;6.00;;;14.10;83.80;;;;;;5003592;28;20130;-77
2023/10/06 06:30:18;;;;;;;13.83;4.87;;;14.20;83.70;;;;;;5003631;28;20471;-77
2023/10/06 06:32:48;;;;;;;11.73;5.10;;;14.20;83.60;;;;;;5009880;28;20246;-77
2023/10/06 06:35:19;;;;;;;11.27;4.63;;;14.20;83.70;;;;;;4999325;28;20145;-77
2023/10/06 06:37:50;;;;;;;16.20;5.55;;;14.30;83.60;;;;;;5006779;28;20133;-77
2023/10/06 06:40:19;;;;;;;13.50;4.72;;;14.30;83.40;;;;;;5008020;28;20101;-76
2023/10/06 06:42:47;;;;;;;13.30;5.40;;;14.30;83.40;;;;;;4995941;28;20052;-76
2023/10/06 06:45:14;;;;;;;14.63;6.43;;;14.30;83.40;;;;;;5024947;28;20292;-77
2023/10/06 06:47:43;;;;;;;16.33;5.68;;;14.40;83.20;;;;;;4998310;28;20503;-77
2023/10/06 06:50:12;;;;;;;13.05;5.38;;;14.40;83.30;;;;;;5014921;28;20055;-76
2023/10/06 06:52:40;;;;;;;14.23;5.05;;;14.40;83.50;;;;;;5009213;28;20057;-76
2023/10/06 06:55:12;;;;;;;15.83;5.90;;;14.40;83.40;;;;;;5019106;28;20451;-76
2023/10/06 06:57:43;;;;;;;9.85;4.00;;;14.40;83.50;;;;;;5005591;28;20285;-76
2023/10/06 07:00:16;;;;;;;12.25;5.50;;;14.40;83.70;;;;;;4996526;28;20081;-77
2023/10/06 07:02:44;;;;;;;13.93;5.72;;;14.50;83.70;;;;;;5017796;28;20437;-76
2023/10/06 07:05:12;;;;;;;11.57;5.43;;;14.50;83.70;;;;;;5024654;28;20050;-76
2023/10/06 07:07:42;;;;;;;14.63;5.00;;;14.50;83.80;;;;;;5000825;28;21232;-77
2023/10/06 07:10:13;;;;;;;10.57;5.05;;;14.50;83.70;;;;;;5021421;28;20845;-76
2023/10/06 07:12:41;;;;;;;12.27;5.35;;;14.50;83.60;;;;;;5018038;28;20054;-76
2023/10/06 07:15:19;;;;;;;10.13;4.22;;;14.50;83.70;;;;;;5009113;28;20054;-76
2023/10/06 07:17:47;;;;;;;13.52;4.28;;;14.50;83.80;;;;;;4991403;28;20622;-76
2023/10/06 07:20:16;;;;;;;10.97;4.90;;;14.50;83.80;;;;;;5018115;28;20060;-76
2023/10/06 07:22:46;;;;;;;10.75;4.43;;;14.50;83.90;;;;;;5016596;28;20273;-77
2023/10/06 07:25:15;;;;;;;12.35;4.60;;;14.60;83.70;;;;;;5006906;28;20061;-76
2023/10/06 07:27:43;;;;;;;11.45;4.72;;;14.60;83.60;;;;;;4995258;28;20479;-76
2023/10/06 07:30:14;;;;;;;11.82;4.38;;;14.60;83.70;;;;;;5010338;28;20486;-76
2023/10/06 07:32:42;;;;;;;13.13;5.10;;;14.60;83.70;;;;;;5026380;28;20054;-76
2023/10/06 07:35:12;;;;;;;13.20;5.00;;;14.60;83.60;;;;;;5012929;28;20274;-76
2023/10/06 07:37:42;;;;;;;15.90;4.55;;;14.60;83.70;;;;;;5022064;28;20061;-77
2023/10/06 07:40:15;;;;;;;9.43;4.13;;;14.70;83.50;;;;;;5009753;28;20053;-76
2023/10/06 07:42:43;;;;;;;10.43;4.70;;;14.70;83.50;;;;;;5015593;28;20130;-76
2023/10/06 07:45:11;;;;;;;9.67;3.40;;;14.70;83.70;;;;;;5005487;28;20070;-76
2023/10/06 07:47:41;;;;;;;14.20;4.63;;;14.70;83.70;;;;;;5028070;28;20242;-76
2023/10/06 07:50:12;;;;;;;10.32;4.13;;;14.70;83.70;;;;;;5016672;28;20054;-77
2023/10/06 07:52:41;;;;;;;11.93;4.88;;;14.70;83.90;;;;;;5023481;28;20120;-74
2023/10/06 07:55:09;;;;;;;12.05;4.25;;;14.70;83.70;;;;;;5018624;28;20527;-85
2023/10/06 07:57:41;;;;;;;10.70;4.87;;;14.80;83.70;;;;;;5011974;28;20131;-84
2023/10/06 08:00:12;;;;;;;13.85;4.97;;;14.80;83.80;;;;;;5010716;28;20742;-83
2023/10/06 08:02:40;;;;;;;12.57;4.93;;;14.80;83.70;;;;;;5009301;28;20717;-84
2023/10/06 08:05:11;;;;;;;14.13;5.03;;;14.80;83.60;;;;;;5010168;28;20072;-83
2023/10/06 08:07:39;;;;;;;10.73;4.55;;;14.90;83.60;;;;;;5014771;28;20132;-83
2023/10/06 08:10:13;;;;;;;11.00;4.70;;;14.90;83.60;;;;;;5001176;28;20481;-83
2023/10/06 08:12:43;;;;;;;12.30;4.65;;;14.90;83.70;;;;;;4999808;28;20267;-82
2023/10/06 08:15:11;;;;;;;14.32;5.00;;;14.90;83.70;;;;;;5014366;28;20054;-83
2023/10/06 08:17:38;;;;;;;15.18;5.22;;;14.90;83.50;;;;;;4978918;28;20189;-83
2023/10/06 08:20:06;;;;;;;12.68;5.10;;;15.00;83.50;;;;;;5009753;28;20054;-83
2023/10/06 08:22:34;;;;;;;10.83;3.83;;;14.90;83.50;;;;;;5005880;28;20055;-84
2023/10/06 08:25:02;;;;;;;11.10;4.88;;;15.00;83.50;;;;;;5002833;28;20295;-83
2023/10/06 08:27:29;;;;;;;11.50;4.85;;;15.00;83.70;;;;;;4987088;28;20058;-83
2023/10/06 08:29:58;;;;;;;12.13;4.45;;;15.00;83.60;;;;;;5002864;28;20061;-83
2023/10/06 08:32:24;;;;;;;14.25;5.53;;;15.00;83.70;;;;;;4994673;28;20414;-83
2023/10/06 08:34:51;;;;;;;12.03;5.40;;;15.00;83.70;;;;;;5007871;28;20050;-84
2023/10/06 08:37:19;;;;;;;12.70;4.55;;;15.00;83.60;;;;;;5005624;28;20264;-83
2023/10/06 08:39:47;;;;;;;11.88;5.10;;;15.20;83.10;;;;;;5010451;28;20058;-84
2023/10/06 08:42:16;;;;;;;13.38;5.40;;;15.10;83.40;;;;;;4991540;28;20065;-84
2023/10/06 08:44:43;;;;;;;10.30;4.72;;;15.20;83.40;;;;;;4985378;28;20054;-84
2023/10/06 08:47:14;;;;;;;10.97;5.20;;;15.20;83.30;;;;;;5026367;28;20050;-84
2023/10/06 08:49:46;;;;;;;13.27;4.93;;;15.20;83.00;;;;;;5023292;28;20382;-84
2023/10/06 08:52:14;;;;;;;14.63;5.65;;;15.20;82.90;;;;;;4987397;28;20102;-84
2023/10/06 08:54:45;;;;;;;12.93;5.80;;;15.30;82.80;;;;;;5017510;28;20145;-85
2023/10/06 08:57:12;;;;;;;15.52;5.78;;;15.30;82.70;;;;;;4993991;28;20885;-85
2023/10/06 08:59:39;;;;;;;16.43;5.90;;;15.30;82.50;;;;;;4981731;28;20527;-85
2023/10/06 09:02:07;;;;;;;11.20;4.30;;;15.30;82.60;;;;;;4985910;28;20273;-84
2023/10/06 09:04:37;;;;;;;13.65;5.82;;;15.30;82.90;;;;;;5018780;28;20457;-84
2023/10/06 09:07:13;;;;;;;15.07;6.15;;;15.30;82.80;;;;;;5006694;28;20513;-84
2023/10/06 09:09:42;;;;;;;13.75;5.72;;;15.40;82.70;;;;;;5011622;28;20117;-85
2023/10/06 09:12:10;;;;;;;13.60;5.93;;;15.40;82.50;;;;;;4998806;28;20167;-84
2023/10/06 09:14:52;;;;;;;14.50;6.10;;;15.50;82.50;;;;;;5027600;28;20285;-85
2023/10/06 09:17:31;;;;;;;13.05;5.80;;;15.50;82.50;;;;;;4995669;28;20081;-85
2023/10/06 09:20:02;;;;;;;13.27;4.45;;;15.50;82.30;;;;;;5007439;28;20054;-85
2023/10/06 09:22:45;;;;;;;14.15;5.40;;;15.60;82.10;;;;;;5003580;28;20045;-84
2023/10/06 09:25:12;;;;;;;14.77;5.90;;;15.60;82.40;;;;;;5002503;28;20061;-84
2023/10/06 09:27:41;;;;;;;12.98;4.57;;;15.60;82.40;;;;;;5000098;28;20361;-85
2023/10/06 09:30:12;;;;;;;15.27;5.78;;;15.60;82.20;;;;;;5016885;28;20059;-85
2023/10/06 09:32:39;;;;;;;14.55;5.45;;;15.60;82.10;;;;;;4991690;28;20057;-85
2023/10/06 09:35:21;;;;;;;8.30;4.10;;;15.60;82.10;;;;;;5008845;28;20575;-84
2023/10/06 09:37:51;;;;;;;11.87;4.63;;;15.80;82.30;;;;;;5001607;28;20056;-84
2023/10/06 09:40:22;;;;;;;14.13;5.88;;;15.80;81.90;;;;;;5003113;28;20280;-85
2023/10/06 09:42:50;;;;;;;12.70;5.43;;;15.80;82.10;;;;;;5016386;28;20058;-85
2023/10/06 09:45:21;;;;;;;14.07;5.72;;;15.80;82.00;;;;;;4985108;28;20069;-84
2023/10/06 09:47:50;;;;;;;13.35;4.82;;;15.90;81.90;;;;;;5025344;28;20053;-85
2023/10/06 09:50:22;;;;;;;14.60;5.37;;;15.90;81.60;;;;;;5025731;28;20137;-85
2023/10/06 09:52:49;;;;;;;11.57;4.85;;;16.00;81.50;;;;;;5005283;28;20376;-85
2023/10/06 09:55:19;;;;;;;8.55;4.70;;;16.00;81.50;;;;;;4993331;28;20587;-85
2023/10/06 09:57:48;;;;;;;10.93;4.38;;;16.00;81.50;;;;;;5030302;28;20503;-85
2023/10/06 10:00:18;;;;;;;12.23;4.85;;;16.10;81.40;;;;;;4997796;28;20164;-85
2023/10/06 10:02:47;;;;;;;12.80;5.47;;;16.10;81.40;;;;;;5029232;28;20623;-85
2023/10/06 10:05:14;;;;;;;12.15;4.65;;;16.10;81.40;;;;;;5000002;28;20276;-85
2023/10/06 10:07:43;;;;;;;11.55;5.32;;;16.10;81.30;;;;;;5015382;28;20050;-85
2023/10/06 10:10:12;;;;;;;12.60;5.00;;;16.20;81.20;;;;;;4993003;28;20485;-85
2023/10/06 10:12:56;;;;;;;12.50;5.00;;;16.20;81.10;;;;;;5009431;28;20049;-85
2023/10/06 10:15:37;;;;;;;11.87;4.73;;;16.30;81.20;;;;;;5009103;28;20563;-85
2023/10/06 10:18:15;;;;;;;8.57;3.28;;;16.40;81.20;;;;;;5006575;28;20405;-85
2023/10/06 10:20:46;;;;;;;10.95;4.85;;;16.40;81.20;;;;;;4993226;28;20070;-85
2023/10/06 10:23:16;;;;;;;12.65;5.05;;;16.50;80.90;;;;;;5008498;28;20156;-85
2023/10/06 10:25:44;;;;;;;11.93;4.85;;;16.60;80.40;;;;;;5002647;28;20145;-85
2023/10/06 10:28:19;;;;;;;12.73;4.90;;;16.70;80.40;;;;;;5004350;28;20508;-85
2023/10/06 10:30:53;;;;;;;9.48;3.65;;;16.80;80.10;;;;;;4994182;28;20768;-86
2023/10/06 10:33:25;;;;;;;13.18;4.47;;;16.90;79.90;;;;;;5009685;28;20961;-85
2023/10/06 10:36:20;;;;;;;10.55;4.45;;;17.00;79.60;;;;;;5013042;28;20098;-85
2023/10/06 10:39:07;;;;;;;10.73;3.88;;;17.00;79.40;;;;;;5008807;28;20054;-87
2023/10/06 10:41:37;;;;;;;11.70;4.33;;;17.20;79.00;;;;;;4989229;28;20065;-86
2023/10/06 10:44:11;;;;;;;11.82;4.15;;;17.20;78.70;;;;;;4993306;28;20249;-87
2023/10/06 10:46:44;;;;;;;11.02;4.25;;;17.20;79.00;;;;;;4985516;28;20564;-87
2023/10/06 10:49:13;;;;;;;12.35;4.20;;;17.20;79.10;;;;;;4989599;28;20361;-88
2023/10/06 10:51:57;;;;;;;12.27;4.78;;;17.20;79.00;;;;;;5003033;28;20140;-86
2023/10/06 10:54:28;;;;;;;11.17;4.17;;;17.30;78.70;;;;;;5005356;28;20050;-85
2023/10/06 10:57:02;;;;;;;8.73;3.00;;;17.30;78.40;;;;;;5000852;28;20254;-89
2023/10/06 11:00:11;;;;;;;8.15;2.42;;;17.40;77.70;;;;;;5005776;28;20050;-87
2023/10/06 11:02:41;;;;;;;10.07;3.60;;;17.40;77.40;;;;;;5005714;28;20047;-87
2023/10/06 11:05:09;;;;;;;8.50;3.42;;;17.40;77.20;;;;;;5001972;28;20052;-87
2023/10/06 11:07:37;;;;;;;10.50;3.40;;;17.50;76.60;;;;;;4996017;28;20046;-85
2023/10/06 11:10:08;;;;;;;11.35;3.88;;;17.40;76.60;;;;;;5021121;28;20717;-84
2023/10/06 11:12:35;;;;;;;11.82;3.22;;;17.50;76.30;;;;;;5007950;28;20053;-85
2023/10/06 11:15:14;;;;;;;12.77;3.38;;;17.40;76.20;;;;;;5014639;28;20061;-84
2023/10/06 11:17:43;;;;;;;15.55;3.40;;;17.40;75.90;;;;;;5009366;28;20051;-83
2023/10/06 11:20:21;;;;;;;12.13;3.80;;;17.40;76.30;;;;;;4986143;28;20061;-83
2023/10/06 11:22:54;;;;;;;11.10;3.90;;;17.40;76.30;;;;;;5015211;28;20278;-84
2023/10/06 11:25:27;;;;;;;11.35;3.55;;;17.40;76.60;;;;;;5024732;28;20496;-84
2023/10/06 11:28:00;;;;;;;8.45;2.45;;;17.40;77.00;;;;;;4997383;28;20062;-84
2023/10/06 11:30:28;;;;;;;10.40;3.67;;;17.40;77.40;;;;;;5002747;28;20702;-85
2023/10/06 11:32:57;;;;;;;9.27;3.50;;;17.40;77.30;;;;;;5019366;28;20060;-85
2023/10/06 11:35:27;;;;;;;10.48;4.10;;;17.50;77.30;;;;;;5010426;28;20265;-86
2023/10/06 11:37:55;;;;;;;8.90;3.60;;;17.50;77.40;;;;;;5011728;28;20045;-84
2023/10/06 11:40:24;;;;;;;11.48;4.05;;;17.50;77.80;;;;;;5008605;28;20050;-85
2023/10/06 11:42:51;;;;;;;8.15;3.42;;;17.50;78.00;;;;;;5019436;28;20065;-84
2023/10/06 11:45:27;;;;;;;9.30;3.07;;;17.50;77.30;;;;;;4988289;28;20137;-87
2023/10/06 11:47:55;;;;;;;11.23;3.88;;;17.50;77.50;;;;;;5020096;28;20258;-87
2023/10/06 11:50:24;;;;;;;12.13;4.43;;;17.60;77.40;;;;;;5004973;28;20938;-87
2023/10/06 11:52:51;;;;;;;8.57;3.75;;;17.60;77.50;;;;;;4987859;28;20164;-87
2023/10/06 11:55:33;;;;;;;9.52;3.47;;;17.60;77.20;;;;;;4992571;28;20065;-87
2023/10/06 11:58:04;;;;;;;11.43;3.70;;;17.60;77.00;;;;;;4998597;28;20070;-87
2023/10/06 12:00:43;;;;;;;6.35;2.88;;;17.70;77.20;;;;;;5009795;28;20262;-86
2023/10/06 12:03:11;;;;;;;11.50;3.80;;;17.80;77.20;;;;;;5009669;28;20505;-87
2023/10/06 12:05:41;;;;;;;12.18;4.13;;;17.80;77.00;;;;;;5014246;28;20269;-86
2023/10/06 12:08:11;;;;;;;12.20;3.42;;;17.80;77.00;;;;;;4992473;28;20138;-87
2023/10/06 12:10:51;;;;;;;11.13;4.33;;;17.90;76.50;;;;;;5015265;28;20557;-87
2023/10/06 12:13:18;;;;;;;9.70;4.13;;;18.00;75.80;;;;;;5007102;28;20277;-86
2023/10/06 12:15:47;;;;;;;14.38;4.75;;;18.00;75.90;;;;;;4987040;28;20058;-86
2023/10/06 12:18:15;;;;;;;8.80;3.42;;;18.00;76.30;;;;;;5008738;28;20058;-86
2023/10/06 12:20:44;;;;;;;12.93;4.05;;;18.00;76.70;;;;;;5000831;28;20461;-86
2023/10/06 12:23:11;;;;;;;8.87;3.57;;;18.10;76.40;;;;;;4992889;28;20051;-86
2023/10/06 12:25:39;;;;;;;12.18;3.78;;;18.20;76.20;;;;;;5010803;28;20740;-86
2023/10/06 12:28:07;;;;;;;9.70;3.53;;;18.20;76.60;;;;;;4995264;28;20112;-86
2023/10/06 12:30:35;;;;;;;11.27;3.95;;;18.20;76.60;;;;;;5003396;28;20046;-86
2023/10/06 12:33:02;;;;;;;12.02;4.32;;;18.30;76.20;;;;;;4984174;28;20055;-86
2023/10/06 12:35:30;;;;;;;12.20;4.40;;;18.30;76.50;;;;;;5005767;28;20109;-86
2023/10/06 12:37:59;;;;;;;7.85;3.45;;;18.40;76.20;;;;;;4999124;28;20253;-87
2023/10/06 12:40:26;;;;;;;9.88;3.67;;;18.40;76.20;;;;;;5028622;28;20050;-87
2023/10/06 12:42:53;;;;;;;11.95;3.58;;;18.50;75.70;;;;;;5017821;28;20118;-86
2023/10/06 12:45:23;;;;;;;13.32;3.72;;;18.50;76.20;;;;;;5009115;28;20053;-86
2023/10/06 12:47:52;;;;;;;8.70;3.83;;;18.50;76.10;;;;;;5011969;28;20058;-87
2023/10/06 12:50:21;;;;;;;8.57;3.50;;;18.60;76.20;;;;;;5022026;28;20258;-87
2023/10/06 12:52:51;;;;;;;9.63;3.70;;;18.60;76.50;;;;;;4995307;28;20065;-87
2023/10/06 12:55:21;;;;;;;11.75;3.85;;;18.70;76.20;;;;;;4978997;28;20106;-86